createdAt,value
2018-06-15T00:00:27.028Z,14.13
2018-06-15T00:01:01.551Z,13.83
2018-06-15T00:01:35.575Z,15.27
2018-06-15T00:02:10.605Z,11.23
2018-06-15T00:02:48.980Z,10.87
2018-06-15T00:03:23.123Z,11.43
2018-06-15T00:03:57.180Z,11.57
2018-06-15T00:04:31.413Z,11.47
2018-06-15T00:05:05.956Z,9.77
2018-06-15T00:05:39.996Z,10.97
2018-06-15T00:06:14.077Z,11.23
2018-06-15T00:06:49.033Z,11.23
2018-06-15T00:07:23.031Z,10.27
2018-06-15T00:07:57.274Z,14.07
2018-06-15T00:08:31.536Z,11.10
2018-06-15T00:09:07.677Z,13.80
2018-06-15T00:09:42.598Z,9.40
2018-06-15T00:10:16.974Z,10.77
2018-06-15T00:10:52.507Z,11.93
2018-06-15T00:11:27.684Z,10.23
2018-06-15T00:12:01.455Z,14.00
2018-06-15T00:12:35.610Z,14.33
2018-06-15T00:13:09.832Z,12.50
2018-06-15T00:13:43.830Z,12.13
2018-06-15T00:14:17.990Z,11.00
2018-06-15T00:14:53.124Z,11.60
2018-06-15T00:15:26.968Z,12.20
2018-06-15T00:16:01.022Z,12.30
2018-06-15T00:16:35.090Z,11.77
2018-06-15T00:17:09.084Z,11.40
2018-06-15T00:17:43.010Z,15.10
2018-06-15T00:18:17.105Z,11.63
2018-06-15T00:18:51.960Z,14.43
2018-06-15T00:19:26.323Z,13.77
2018-06-15T00:20:00.484Z,11.37
2018-06-15T00:20:34.692Z,16.17
2018-06-15T00:21:08.726Z,12.00
2018-06-15T00:21:42.833Z,11.57
2018-06-15T00:22:16.832Z,11.57
2018-06-15T00:22:51.498Z,16.00
2018-06-15T00:23:25.556Z,13.27
2018-06-15T00:23:59.746Z,15.37
2018-06-15T00:24:33.816Z,17.10
2018-06-15T00:25:08.174Z,16.00
2018-06-15T00:25:42.272Z,15.63
2018-06-15T00:26:16.676Z,14.83
2018-06-15T00:26:50.552Z,17.23
2018-06-15T00:27:24.670Z,17.40
2018-06-15T00:27:59.754Z,15.53
2018-06-15T00:28:34.069Z,13.20
2018-06-15T00:29:08.160Z,16.17
2018-06-15T00:29:42.330Z,23.80
2018-06-15T00:30:16.735Z,15.73
2018-06-15T00:30:52.032Z,15.93
2018-06-15T00:31:26.802Z,16.40
2018-06-15T00:32:01.056Z,15.93
2018-06-15T00:32:35.232Z,16.60
2018-06-15T00:33:09.454Z,17.80
2018-06-15T00:33:44.223Z,18.00
2018-06-15T00:34:18.529Z,16.73
2018-06-15T00:34:53.468Z,16.70
2018-06-15T00:35:27.850Z,23.63
2018-06-15T00:36:02.055Z,20.97
2018-06-15T00:36:36.238Z,16.37
2018-06-15T00:37:10.457Z,17.50
2018-06-15T00:37:44.530Z,18.23
2018-06-15T00:38:18.554Z,18.63
2018-06-15T00:38:52.709Z,18.13
2018-06-15T00:39:26.798Z,22.20
2018-06-15T00:40:01.138Z,18.80
2018-06-15T00:40:35.626Z,17.90
2018-06-15T00:41:10.025Z,20.47
2018-06-15T00:41:45.314Z,22.30
2018-06-15T00:42:19.617Z,19.00
2018-06-15T00:42:53.709Z,17.47
2018-06-15T00:43:27.458Z,18.37
2018-06-15T00:44:01.759Z,16.97
2018-06-15T00:45:39.497Z,20.37
2018-06-15T00:46:13.819Z,21.20
2018-06-15T00:46:48.635Z,17.73
2018-06-15T00:47:23.286Z,20.90
2018-06-15T00:47:58.757Z,19.80
2018-06-15T00:48:32.804Z,21.20
2018-06-15T00:49:07.455Z,20.97
2018-06-15T00:49:41.553Z,19.53
2018-06-15T00:50:16.629Z,21.70
2018-06-15T00:50:51.471Z,19.47
2018-06-15T00:51:25.539Z,22.93
2018-06-15T00:51:59.605Z,17.27
2018-06-15T00:52:33.471Z,17.17
2018-06-15T00:53:07.899Z,17.67
2018-06-15T00:53:42.027Z,20.50
2018-06-15T00:54:16.109Z,21.60
2018-06-15T00:54:50.874Z,23.57
2018-06-15T00:55:25.021Z,17.47
2018-06-15T00:55:59.112Z,17.67
2018-06-15T00:56:33.577Z,20.27
2018-06-15T00:57:18.873Z,22.53
2018-06-15T00:57:53.003Z,20.30
2018-06-15T00:58:27.629Z,17.63
2018-06-15T00:59:02.010Z,21.20
2018-06-15T00:59:35.928Z,18.53
2018-06-15T01:00:09.863Z,25.73
2018-06-15T01:00:44.064Z,20.33
2018-06-15T01:01:18.134Z,18.03
2018-06-15T01:01:52.433Z,24.63
2018-06-15T01:02:26.614Z,20.40
2018-06-15T01:03:00.703Z,22.43
2018-06-15T01:03:34.462Z,21.90
2018-06-15T01:04:08.494Z,18.40
2018-06-15T01:04:42.306Z,20.40
2018-06-15T01:05:16.734Z,16.73
2018-06-15T01:05:50.855Z,21.20
2018-06-15T01:06:25.236Z,27.43
2018-06-15T01:06:59.465Z,22.60
2018-06-15T01:07:33.694Z,22.13
2018-06-15T01:08:07.961Z,17.60
2018-06-15T01:08:42.368Z,20.03
2018-06-15T01:09:16.498Z,20.07
2018-06-15T01:09:50.798Z,21.80
2018-06-15T01:10:24.973Z,23.07
2018-06-15T01:10:59.515Z,20.57
2018-06-15T01:11:33.617Z,18.90
2018-06-15T01:12:07.865Z,23.43
2018-06-15T01:12:41.922Z,20.87
2018-06-15T01:13:16.241Z,20.80
2018-06-15T01:13:50.038Z,19.77
2018-06-15T01:14:24.364Z,23.17
2018-06-15T01:14:58.545Z,20.93
2018-06-15T01:15:32.523Z,22.77
2018-06-15T01:16:07.126Z,24.37
2018-06-15T01:16:41.960Z,21.17
2018-06-15T01:17:16.043Z,21.60
2018-06-15T01:17:49.994Z,20.50
2018-06-15T01:18:24.005Z,24.70
2018-06-15T01:18:58.259Z,18.60
2018-06-15T01:19:32.049Z,22.33
2018-06-15T01:20:05.704Z,19.60
2018-06-15T01:20:39.753Z,25.73
2018-06-15T01:21:14.413Z,21.97
2018-06-15T01:21:48.629Z,21.13
2018-06-15T01:22:23.175Z,20.47
2018-06-15T01:22:57.785Z,21.70
2018-06-15T01:23:31.626Z,21.27
2018-06-15T01:24:06.279Z,24.07
2018-06-15T01:24:40.325Z,25.10
2018-06-15T01:25:14.739Z,20.87
2018-06-15T01:25:48.785Z,20.37
2018-06-15T01:26:23.239Z,27.87
2018-06-15T01:26:57.947Z,22.63
2018-06-15T01:27:32.367Z,22.40
2018-06-15T01:28:07.103Z,22.00
2018-06-15T01:28:41.149Z,24.10
2018-06-15T01:29:15.783Z,20.10
2018-06-15T01:29:49.831Z,23.37
2018-06-15T01:30:23.521Z,20.83
2018-06-15T01:30:57.953Z,20.40
2018-06-15T01:31:32.162Z,19.13
2018-06-15T01:32:06.256Z,20.50
2018-06-15T01:32:40.307Z,24.30
2018-06-15T01:33:14.478Z,20.77
2018-06-15T01:33:48.647Z,29.30
2018-06-15T01:34:22.827Z,21.93
2018-06-15T01:34:56.600Z,23.50
2018-06-15T01:35:30.803Z,24.00
2018-06-15T01:36:05.007Z,25.80
2018-06-15T01:36:39.051Z,21.20
2018-06-15T01:37:13.091Z,21.17
2018-06-15T01:37:47.429Z,20.10
2018-06-15T01:38:21.629Z,21.10
2018-06-15T01:38:55.869Z,21.60
2018-06-15T01:39:30.763Z,20.53
2018-06-15T01:40:04.796Z,22.80
2018-06-15T01:40:38.886Z,23.13
2018-06-15T01:41:13.557Z,19.83
2018-06-15T01:41:47.915Z,23.90
2018-06-15T01:42:22.207Z,19.33
2018-06-15T01:42:56.471Z,26.73
2018-06-15T01:43:30.543Z,27.90
2018-06-15T01:44:04.875Z,22.40
2018-06-15T01:44:38.857Z,22.87
2018-06-15T01:45:12.958Z,22.30
2018-06-15T01:45:47.139Z,24.17
2018-06-15T01:46:21.162Z,21.07
2018-06-15T01:46:55.535Z,28.13
2018-06-15T01:47:29.861Z,21.43
2018-06-15T01:48:04.285Z,24.40
2018-06-15T01:48:38.270Z,24.70
2018-06-15T01:49:12.435Z,23.03
2018-06-15T01:49:46.539Z,29.77
2018-06-15T01:50:20.709Z,26.17
2018-06-15T01:50:54.973Z,22.03
2018-06-15T01:51:29.281Z,23.97
2018-06-15T01:52:03.315Z,22.13
2018-06-15T01:52:37.291Z,23.33
2018-06-15T01:53:11.050Z,22.77
2018-06-15T01:53:45.171Z,22.50
2018-06-15T01:54:18.941Z,24.13
2018-06-15T01:54:53.041Z,23.23
2018-06-15T01:55:27.224Z,24.40
2018-06-15T01:56:01.435Z,21.70
2018-06-15T01:56:35.489Z,22.20
2018-06-15T01:57:09.668Z,22.57
2018-06-15T01:57:43.431Z,22.77
2018-06-15T01:58:17.548Z,23.93
2018-06-15T01:58:52.539Z,25.00
2018-06-15T01:59:26.549Z,24.37
2018-06-15T02:00:00.727Z,22.27
2018-06-15T02:00:34.812Z,23.00
2018-06-15T02:01:08.940Z,23.83
2018-06-15T02:01:43.203Z,24.33
2018-06-15T02:02:17.217Z,22.87
2018-06-15T02:02:51.439Z,23.60
2018-06-15T02:03:25.545Z,23.77
2018-06-15T02:03:59.569Z,23.30
2018-06-15T02:04:34.098Z,24.40
2018-06-15T02:05:07.857Z,25.27
2018-06-15T02:05:42.179Z,27.63
2018-06-15T02:06:16.199Z,28.77
2018-06-15T02:06:50.432Z,25.83
2018-06-15T02:07:24.603Z,24.83
2018-06-15T02:07:58.688Z,25.40
2018-06-15T02:08:32.713Z,24.60
2018-06-15T02:09:07.811Z,25.70
2018-06-15T02:09:41.872Z,24.20
2018-06-15T02:10:16.016Z,31.20
2018-06-15T02:10:50.211Z,29.00
2018-06-15T02:11:24.413Z,24.27
2018-06-15T02:11:58.376Z,23.57
2018-06-15T02:12:32.399Z,27.57
2018-06-15T02:13:06.497Z,27.27
2018-06-15T02:13:40.618Z,23.60
2018-06-15T02:14:14.775Z,23.90
2018-06-15T02:14:49.618Z,25.40
2018-06-15T02:15:23.838Z,23.87
2018-06-15T02:15:57.903Z,30.07
2018-06-15T02:16:32.528Z,24.47
2018-06-15T02:17:06.536Z,26.10
2018-06-15T02:17:40.318Z,25.23
2018-06-15T02:18:14.230Z,22.37
2018-06-15T02:18:49.551Z,29.00
2018-06-15T02:19:23.225Z,24.80
2018-06-15T02:19:57.407Z,33.03
2018-06-15T02:20:31.673Z,22.43
2018-06-15T02:21:05.817Z,23.93
2018-06-15T02:21:39.941Z,24.90
2018-06-15T02:22:14.038Z,24.83
2018-06-15T02:22:49.893Z,23.37
2018-06-15T02:23:24.100Z,24.90
2018-06-15T02:24:12.788Z,25.37
2018-06-15T02:24:46.866Z,25.67
2018-06-15T02:25:20.994Z,25.10
2018-06-15T02:26:59.967Z,23.63
2018-06-15T02:27:33.936Z,24.03
2018-06-15T02:28:07.971Z,27.00
2018-06-15T02:28:42.006Z,27.53
2018-06-15T02:29:15.984Z,26.10
2018-06-15T02:29:50.094Z,30.17
2018-06-15T02:30:24.156Z,31.70
2018-06-15T02:30:58.398Z,24.77
2018-06-15T02:31:32.580Z,26.47
2018-06-15T02:32:06.564Z,25.60
2018-06-15T02:32:40.572Z,27.70
2018-06-15T02:33:14.736Z,26.87
2018-06-15T02:33:48.790Z,25.90
2018-06-15T02:34:22.824Z,26.80
2018-06-15T02:34:57.024Z,28.63
2018-06-15T02:35:31.144Z,31.63
2018-06-15T02:36:05.208Z,27.43
2018-06-15T02:36:39.560Z,28.67
2018-06-15T02:37:14.032Z,31.50
2018-06-15T02:37:48.212Z,27.27
2018-06-15T02:38:22.455Z,28.93
2018-06-15T02:38:56.750Z,26.13
2018-06-15T02:39:30.814Z,34.60
2018-06-15T02:40:05.080Z,35.30
2018-06-15T02:40:39.275Z,33.70
2018-06-15T02:41:13.474Z,27.07
2018-06-15T02:41:47.722Z,30.70
2018-06-15T02:42:22.169Z,26.80
2018-06-15T02:42:55.975Z,29.70
2018-06-15T02:43:31.202Z,30.27
2018-06-15T02:44:06.165Z,27.03
2018-06-15T02:44:40.277Z,30.20
2018-06-15T02:45:14.535Z,28.47
2018-06-15T02:45:48.674Z,28.43
2018-06-15T02:46:23.045Z,28.97
2018-06-15T02:46:57.348Z,27.80
2018-06-15T02:47:31.495Z,27.87
2018-06-15T02:48:06.113Z,29.20
2018-06-15T02:48:40.326Z,28.17
2018-06-15T02:49:14.601Z,28.07
2018-06-15T02:49:48.694Z,28.20
2018-06-15T02:50:22.716Z,30.70
2018-06-15T02:50:56.858Z,33.60
2018-06-15T02:51:31.286Z,26.97
2018-06-15T02:52:05.653Z,33.10
2018-06-15T02:52:40.035Z,28.37
2018-06-15T02:53:14.165Z,27.00
2018-06-15T02:53:48.380Z,27.93
2018-06-15T02:54:23.012Z,33.07
2018-06-15T02:54:57.060Z,28.43
2018-06-15T02:55:31.180Z,31.30
2018-06-15T02:56:05.776Z,28.43
2018-06-15T02:56:40.250Z,32.97
2018-06-15T02:57:14.622Z,31.30
2018-06-15T02:57:48.852Z,30.70
2018-06-15T02:58:23.085Z,28.33
2018-06-15T02:58:57.311Z,29.50
2018-06-15T02:59:31.541Z,31.03
2018-06-15T03:00:05.875Z,31.87
2018-06-15T03:00:40.240Z,30.90
2018-06-15T03:01:14.326Z,28.27
2018-06-15T03:01:48.436Z,31.70
2018-06-15T03:02:22.574Z,34.00
2018-06-15T03:02:56.760Z,32.23
2018-06-15T03:03:31.290Z,30.90
2018-06-15T03:04:05.626Z,27.70
2018-06-15T03:04:39.939Z,34.73
2018-06-15T03:05:14.172Z,29.83
2018-06-15T03:05:48.446Z,30.60
2018-06-15T03:06:22.660Z,30.33
2018-06-15T03:06:56.892Z,34.50
2018-06-15T03:07:31.586Z,30.03
2018-06-15T03:08:05.875Z,35.30
2018-06-15T03:08:40.039Z,35.00
2018-06-15T03:09:14.520Z,31.73
2018-06-15T03:09:48.850Z,29.33
2018-06-15T03:10:23.284Z,33.73
2018-06-15T03:10:57.696Z,38.50
2018-06-15T03:11:32.074Z,29.77
2018-06-15T03:12:07.032Z,33.23
2018-06-15T03:12:41.132Z,35.53
2018-06-15T03:13:15.380Z,32.63
2018-06-15T03:13:49.635Z,31.27
2018-06-15T03:14:24.034Z,37.93
2018-06-15T03:14:58.023Z,33.87
2018-06-15T03:15:32.000Z,29.63
2018-06-15T03:16:06.505Z,32.20
2018-06-15T03:16:40.688Z,31.53
2018-06-15T03:17:14.994Z,32.30
2018-06-15T03:17:49.416Z,33.13
2018-06-15T03:18:23.482Z,32.57
2018-06-15T03:18:57.645Z,34.50
2018-06-15T03:19:32.456Z,33.07
2018-06-15T03:20:06.736Z,32.07
2018-06-15T03:20:40.892Z,35.70
2018-06-15T03:21:14.914Z,37.80
2018-06-15T03:21:49.106Z,32.77
2018-06-15T03:22:23.189Z,31.80
2018-06-15T03:22:57.192Z,33.03
2018-06-15T03:23:31.256Z,31.47
2018-06-15T03:24:05.916Z,28.67
2018-06-15T03:24:40.086Z,32.83
2018-06-15T03:25:14.165Z,30.67
2018-06-15T03:25:48.167Z,31.70
2018-06-15T03:26:22.278Z,35.60
2018-06-15T03:26:56.007Z,32.73
2018-06-15T03:27:36.894Z,33.93
2018-06-15T03:28:11.085Z,28.80
2018-06-15T03:28:51.727Z,32.83
2018-06-15T03:29:26.292Z,32.07
2018-06-15T03:30:00.831Z,37.10
2018-06-15T03:30:34.987Z,32.03
2018-06-15T03:31:09.198Z,33.30
2018-06-15T03:31:43.516Z,32.00
2018-06-15T03:32:17.742Z,33.97
2018-06-15T03:32:52.212Z,35.90
2018-06-15T03:33:26.214Z,30.77
2018-06-15T03:34:00.358Z,37.53
2018-06-15T03:34:35.170Z,33.13
2018-06-15T03:35:09.530Z,31.43
2018-06-15T03:35:50.319Z,34.70
2018-06-15T03:36:24.331Z,34.10
2018-06-15T03:36:58.508Z,38.97
2018-06-15T03:37:32.863Z,32.97
2018-06-15T03:38:07.005Z,36.03
2018-06-15T03:38:41.350Z,36.13
2018-06-15T03:39:15.511Z,39.60
2018-06-15T03:39:49.558Z,35.00
2018-06-15T03:40:23.690Z,37.60
2018-06-15T03:40:57.832Z,34.20
2018-06-15T03:41:32.023Z,39.17
2018-06-15T03:42:06.506Z,37.63
2018-06-15T03:42:40.204Z,40.63
2018-06-15T03:43:14.449Z,41.60
2018-06-15T03:43:48.612Z,41.93
2018-06-15T03:44:22.736Z,38.50
2018-06-15T03:44:57.037Z,42.43
2018-06-15T03:45:31.270Z,41.80
2018-06-15T03:46:05.541Z,40.27
2018-06-15T03:46:39.913Z,43.30
2018-06-15T03:47:14.016Z,45.50
2018-06-15T03:47:48.246Z,43.53
2018-06-15T03:48:22.242Z,42.60
2018-06-15T03:48:56.233Z,41.53
2018-06-15T03:49:30.286Z,41.80
2018-06-15T03:50:04.836Z,40.43
2018-06-15T03:50:38.866Z,43.40
2018-06-15T03:51:13.054Z,40.00
2018-06-15T03:51:47.100Z,37.00
2018-06-15T03:52:21.605Z,41.90
2018-06-15T03:52:55.492Z,41.73
2018-06-15T03:53:29.362Z,41.00
2018-06-15T03:54:03.760Z,38.17
2018-06-15T03:54:37.630Z,41.73
2018-06-15T03:55:11.660Z,40.30
2018-06-15T03:55:45.570Z,42.90
2018-06-15T03:56:19.438Z,38.00
2018-06-15T03:56:53.290Z,37.70
2018-06-15T03:57:27.152Z,37.27
2018-06-15T03:58:00.997Z,41.40
2018-06-15T03:58:34.872Z,38.80
2018-06-15T03:59:08.772Z,41.23
2018-06-15T03:59:42.602Z,43.80
2018-06-15T04:00:16.474Z,40.73
2018-06-15T04:00:50.696Z,40.73
2018-06-15T04:01:24.529Z,43.90
2018-06-15T04:01:58.392Z,40.87
2018-06-15T04:02:32.236Z,39.53
2018-06-15T04:03:06.124Z,41.50
2018-06-15T04:03:39.976Z,41.53
2018-06-15T04:04:13.826Z,39.93
2018-06-15T04:04:47.729Z,40.47
2018-06-15T04:05:21.626Z,40.43
2018-06-15T04:05:56.120Z,40.43
2018-06-15T04:06:29.978Z,38.00
2018-06-15T04:07:04.528Z,38.30
2018-06-15T04:07:38.804Z,45.17
2018-06-15T04:08:12.845Z,37.30
2018-06-15T04:08:46.708Z,36.80
2018-06-15T04:09:20.589Z,36.83
2018-06-15T04:09:54.418Z,37.10
2018-06-15T04:10:28.306Z,35.70
2018-06-15T04:11:02.528Z,36.83
2018-06-15T04:11:36.552Z,38.50
2018-06-15T04:12:10.433Z,39.17
2018-06-15T04:12:44.442Z,36.87
2018-06-15T04:13:18.345Z,39.07
2018-06-15T04:13:52.395Z,35.27
2018-06-15T04:14:26.294Z,35.60
2018-06-15T04:15:00.190Z,38.00
2018-06-15T04:15:34.072Z,33.20
2018-06-15T04:16:08.644Z,36.10
2018-06-15T04:16:42.528Z,36.23
2018-06-15T04:17:16.386Z,33.43
2018-06-15T04:17:54.926Z,37.03
2018-06-15T04:18:28.778Z,35.60
2018-06-15T04:19:02.974Z,36.20
2018-06-15T04:19:36.818Z,37.30
2018-06-15T04:20:11.012Z,36.93
2018-06-15T04:20:44.874Z,34.50
2018-06-15T04:21:18.766Z,34.20
2018-06-15T04:21:52.654Z,35.70
2018-06-15T04:22:26.528Z,35.40
2018-06-15T04:23:01.235Z,37.47
2018-06-15T04:23:35.224Z,38.40
2018-06-15T04:24:09.150Z,38.90
2018-06-15T04:24:43.046Z,35.33
2018-06-15T04:25:16.932Z,36.67
2018-06-15T04:25:51.108Z,34.50
2018-06-15T04:26:25.241Z,37.00
2018-06-15T04:26:59.201Z,37.37
2018-06-15T04:27:33.032Z,34.80
2018-06-15T04:28:06.685Z,43.00
2018-06-15T04:28:40.428Z,34.00
2018-06-15T04:29:14.291Z,39.33
2018-06-15T04:29:48.150Z,36.47
2018-06-15T04:30:21.992Z,34.90
2018-06-15T04:30:55.642Z,38.50
2018-06-15T04:31:29.336Z,34.80
2018-06-15T04:32:03.089Z,33.87
2018-06-15T04:32:37.008Z,34.17
2018-06-15T04:33:10.972Z,35.87
2018-06-15T04:33:44.866Z,34.87
2018-06-15T04:34:18.776Z,41.53
2018-06-15T04:34:52.724Z,35.80
2018-06-15T04:35:27.377Z,35.07
2018-06-15T04:36:01.259Z,38.03
2018-06-15T04:36:35.160Z,37.27
2018-06-15T04:37:09.033Z,32.37
2018-06-15T04:37:43.077Z,35.17
2018-06-15T04:38:16.951Z,38.37
2018-06-15T04:38:51.433Z,33.20
2018-06-15T04:39:25.309Z,36.80
2018-06-15T04:39:59.147Z,36.80
2018-06-15T04:40:33.017Z,36.20
2018-06-15T04:41:06.645Z,32.73
2018-06-15T04:41:40.786Z,36.27
2018-06-15T04:42:14.649Z,34.80
2018-06-15T04:42:48.510Z,34.60
2018-06-15T04:43:22.382Z,30.00
2018-06-15T04:43:56.342Z,32.37
2018-06-15T04:44:30.426Z,32.03
2018-06-15T04:45:04.271Z,34.10
2018-06-15T04:45:38.123Z,33.90
2018-06-15T04:46:11.991Z,31.90
2018-06-15T04:46:45.887Z,30.40
2018-06-15T04:47:20.049Z,31.80
2018-06-15T04:47:53.961Z,30.53
2018-06-15T04:48:27.777Z,35.40
2018-06-15T04:49:01.685Z,31.57
2018-06-15T04:49:35.519Z,36.80
2018-06-15T04:50:10.026Z,35.77
2018-06-15T04:50:43.853Z,34.27
2018-06-15T04:51:18.059Z,33.83
2018-06-15T04:51:51.949Z,33.30
2018-06-15T04:52:25.562Z,31.90
2018-06-15T04:52:59.335Z,29.30
2018-06-15T04:53:33.285Z,31.07
2018-06-15T04:54:07.456Z,30.90
2018-06-15T04:54:41.341Z,33.00
2018-06-15T04:55:15.246Z,32.30
2018-06-15T04:55:49.116Z,32.97
2018-06-15T04:56:22.993Z,31.67
2018-06-15T04:56:56.807Z,30.77
2018-06-15T04:57:31.135Z,36.00
2018-06-15T04:58:05.394Z,34.17
2018-06-15T04:58:39.283Z,30.73
2018-06-15T04:59:13.247Z,29.30
2018-06-15T04:59:47.090Z,42.17
2018-06-15T05:00:20.973Z,34.17
2018-06-15T05:00:54.621Z,31.87
2018-06-15T05:01:28.367Z,32.93
2018-06-15T05:02:02.260Z,29.87
2018-06-15T05:02:35.871Z,33.17
2018-06-15T05:03:13.675Z,31.80
2018-06-15T05:03:47.552Z,33.90
2018-06-15T05:04:21.409Z,34.07
2018-06-15T05:04:55.285Z,30.40
2018-06-15T05:05:28.926Z,33.87
2018-06-15T05:06:02.688Z,35.00
2018-06-15T05:06:36.518Z,31.83
2018-06-15T05:07:10.433Z,31.57
2018-06-15T05:07:44.275Z,30.27
2018-06-15T05:08:18.159Z,33.53
2018-06-15T05:08:52.359Z,28.40
2018-06-15T05:09:26.237Z,28.77
2018-06-15T05:10:00.085Z,30.70
2018-06-15T05:10:33.925Z,29.30
2018-06-15T05:11:07.758Z,29.63
2018-06-15T05:11:41.779Z,31.83
2018-06-15T05:12:16.123Z,29.90
2018-06-15T05:12:50.014Z,27.40
2018-06-15T05:13:24.750Z,26.87
2018-06-15T05:13:58.641Z,31.57
2018-06-15T05:14:32.497Z,34.47
2018-06-15T05:15:06.737Z,30.00
2018-06-15T05:15:40.819Z,29.77
2018-06-15T05:16:14.695Z,36.83
2018-06-15T05:16:48.551Z,30.77
2018-06-15T05:17:22.485Z,29.63
2018-06-15T05:17:56.331Z,29.67
2018-06-15T05:18:30.218Z,33.33
2018-06-15T05:19:04.085Z,28.23
2018-06-15T05:19:37.844Z,33.30
2018-06-15T05:20:12.268Z,28.73
2018-06-15T05:20:46.461Z,32.73
2018-06-15T05:21:20.319Z,28.60
2018-06-15T05:21:54.451Z,28.37
2018-06-15T05:22:28.477Z,29.13
2018-06-15T05:23:02.339Z,29.17
2018-06-15T05:23:36.230Z,32.77
2018-06-15T05:24:10.416Z,30.33
2018-06-15T05:24:44.589Z,28.67
2018-06-15T05:25:18.461Z,29.43
2018-06-15T05:25:52.728Z,28.20
2018-06-15T05:26:26.739Z,31.63
2018-06-15T05:27:00.601Z,32.37
2018-06-15T05:27:34.489Z,30.20
2018-06-15T05:28:08.342Z,32.80
2018-06-15T05:28:42.247Z,33.93
2018-06-15T05:29:16.123Z,34.77
2018-06-15T05:29:49.968Z,30.57
2018-06-15T05:30:23.843Z,28.73
2018-06-15T05:30:57.534Z,31.30
2018-06-15T05:31:31.297Z,33.90
2018-06-15T05:32:05.404Z,33.07
2018-06-15T05:32:39.335Z,32.33
2018-06-15T05:33:13.197Z,33.10
2018-06-15T05:33:47.075Z,32.13
2018-06-15T05:34:20.943Z,35.00
2018-06-15T05:34:54.815Z,32.03
2018-06-15T05:35:28.687Z,31.00
2018-06-15T05:36:02.526Z,28.57
2018-06-15T05:36:36.706Z,32.80
2018-06-15T05:37:10.561Z,33.13
2018-06-15T05:37:44.493Z,29.63
2018-06-15T05:38:18.327Z,28.23
2018-06-15T05:38:52.178Z,31.83
2018-06-15T05:39:26.041Z,31.23
2018-06-15T05:39:59.923Z,31.63
2018-06-15T05:40:34.435Z,31.13
2018-06-15T05:41:08.302Z,28.37
2018-06-15T05:41:42.507Z,31.10
2018-06-15T05:42:16.405Z,31.30
2018-06-15T05:42:50.289Z,30.90
2018-06-15T05:43:24.499Z,29.13
2018-06-15T05:43:58.361Z,30.90
2018-06-15T05:44:32.015Z,32.60
2018-06-15T05:45:05.803Z,31.63
2018-06-15T05:45:39.661Z,33.03
2018-06-15T05:46:13.855Z,26.87
2018-06-15T05:46:47.913Z,31.70
2018-06-15T05:47:21.989Z,29.50
2018-06-15T05:47:55.887Z,29.87
2018-06-15T05:48:30.096Z,31.63
2018-06-15T05:49:04.253Z,34.30
2018-06-15T05:49:38.532Z,32.57
2018-06-15T05:50:12.427Z,32.67
2018-06-15T05:50:46.345Z,30.03
2018-06-15T05:51:20.221Z,29.13
2018-06-15T05:51:54.115Z,30.20
2018-06-15T05:52:27.753Z,33.70
2018-06-15T05:53:01.574Z,27.37
2018-06-15T05:53:35.659Z,29.10
2018-06-15T05:54:09.531Z,32.93
2018-06-15T05:54:44.130Z,28.57
2018-06-15T05:55:18.349Z,28.67
2018-06-15T05:55:52.164Z,37.80
2018-06-15T05:56:26.445Z,26.80
2018-06-15T05:57:00.323Z,29.60
2018-06-15T05:57:34.212Z,26.90
2018-06-15T05:58:08.529Z,31.77
2018-06-15T05:58:42.391Z,31.50
2018-06-15T05:59:16.214Z,33.63
2018-06-15T05:59:50.033Z,27.43
2018-06-15T06:00:23.902Z,28.90
2018-06-15T06:00:57.823Z,27.00
2018-06-15T06:01:31.702Z,24.80
2018-06-15T06:02:05.970Z,26.90
2018-06-15T06:02:39.809Z,29.67
2018-06-15T06:03:17.273Z,35.10
2018-06-15T06:03:51.223Z,29.53
2018-06-15T06:04:25.249Z,27.60
2018-06-15T06:04:59.123Z,30.27
2018-06-15T06:05:32.999Z,32.60
2018-06-15T06:06:06.613Z,24.20
2018-06-15T06:06:40.741Z,26.30
2018-06-15T06:07:14.605Z,28.83
2018-06-15T06:07:48.503Z,36.67
2018-06-15T06:08:22.393Z,27.83
2018-06-15T06:08:56.243Z,34.07
2018-06-15T06:09:30.135Z,29.97
2018-06-15T06:10:04.597Z,30.27
2018-06-15T06:10:38.531Z,27.83
2018-06-15T06:11:12.408Z,28.40
2018-06-15T06:11:46.619Z,34.00
2018-06-15T06:12:20.471Z,25.47
2018-06-15T06:12:54.343Z,27.90
2018-06-15T06:13:28.201Z,29.23
2018-06-15T06:14:02.083Z,27.90
2018-06-15T06:14:36.281Z,28.83
2018-06-15T06:15:10.501Z,29.10
2018-06-15T06:15:44.779Z,25.40
2018-06-15T06:16:18.974Z,27.53
2018-06-15T06:16:53.163Z,31.67
2018-06-15T06:17:27.349Z,25.80
2018-06-15T06:18:01.215Z,30.20
2018-06-15T06:18:35.100Z,26.13
2018-06-15T06:19:08.973Z,25.73
2018-06-15T06:19:42.874Z,24.57
2018-06-15T06:20:16.935Z,29.40
2018-06-15T06:20:50.570Z,27.87
2018-06-15T06:21:24.345Z,27.67
2018-06-15T06:21:58.610Z,27.33
2018-06-15T06:22:32.225Z,35.30
2018-06-15T06:23:06.004Z,31.93
2018-06-15T06:23:39.901Z,33.70
2018-06-15T06:24:13.775Z,24.43
2018-06-15T06:24:47.415Z,26.83
2018-06-15T06:25:21.237Z,29.10
2018-06-15T06:25:55.099Z,23.90
2018-06-15T06:26:28.961Z,29.73
2018-06-15T06:27:02.819Z,28.27
2018-06-15T06:27:36.703Z,26.60
2018-06-15T06:28:10.575Z,25.33
2018-06-15T06:28:44.525Z,22.20
2018-06-15T06:29:18.419Z,27.60
2018-06-15T06:29:52.229Z,24.17
2018-06-15T06:30:26.396Z,25.40
2018-06-15T06:31:00.262Z,30.27
2018-06-15T06:31:34.333Z,26.50
2018-06-15T06:32:08.227Z,32.53
2018-06-15T06:32:42.131Z,23.10
2018-06-15T06:33:16.141Z,24.30
2018-06-15T06:33:50.154Z,30.43
2018-06-15T06:34:24.357Z,32.10
2018-06-15T06:34:58.205Z,30.00
2018-06-15T06:35:32.089Z,26.10
2018-06-15T06:36:05.983Z,25.77
2018-06-15T06:36:39.814Z,28.10
2018-06-15T06:37:13.813Z,24.13
2018-06-15T06:37:47.691Z,24.20
2018-06-15T06:38:21.535Z,22.87
2018-06-15T06:38:55.407Z,22.37
2018-06-15T06:39:29.272Z,24.20
2018-06-15T06:40:03.131Z,25.17
2018-06-15T06:40:36.993Z,25.00
2018-06-15T06:41:10.877Z,23.03
2018-06-15T06:41:44.791Z,22.20
2018-06-15T06:42:18.662Z,26.83
2018-06-15T06:42:52.525Z,24.17
2018-06-15T06:43:26.419Z,25.47
2018-06-15T06:44:00.680Z,27.47
2018-06-15T06:44:34.572Z,22.87
2018-06-15T06:45:08.468Z,24.70
2018-06-15T06:45:42.329Z,23.00
2018-06-15T06:46:16.160Z,25.03
2018-06-15T06:46:51.083Z,22.70
2018-06-15T06:47:24.946Z,23.50
2018-06-15T06:47:58.853Z,21.77
2018-06-15T06:48:32.713Z,23.40
2018-06-15T06:49:06.689Z,23.43
2018-06-15T06:49:40.578Z,26.17
2018-06-15T06:50:14.232Z,21.90
2018-06-15T06:50:48.382Z,21.80
2018-06-15T06:51:22.274Z,23.63
2018-06-15T06:51:55.952Z,20.60
2018-06-15T06:52:29.502Z,23.50
2018-06-15T06:53:03.330Z,22.87
2018-06-15T06:53:37.220Z,25.30
2018-06-15T06:54:11.220Z,23.33
2018-06-15T06:54:45.020Z,25.40
2018-06-15T06:55:18.885Z,21.37
2018-06-15T06:55:52.902Z,22.23
2018-06-15T06:56:27.156Z,20.87
2018-06-15T06:57:01.390Z,19.30
2018-06-15T06:57:35.269Z,21.80
2018-06-15T06:58:09.252Z,29.77
2018-06-15T06:58:43.180Z,24.40
2018-06-15T06:59:17.092Z,24.47
2018-06-15T06:59:50.961Z,20.87
2018-06-15T07:00:25.036Z,22.73
2018-06-15T07:00:58.941Z,24.20
2018-06-15T07:01:32.840Z,20.60
2018-06-15T07:02:06.711Z,20.43
2018-06-15T07:02:40.992Z,19.20
2018-06-15T07:03:14.882Z,18.97
2018-06-15T07:03:48.784Z,19.97
2018-06-15T07:04:22.657Z,22.13
2018-06-15T07:04:56.556Z,23.40
2018-06-15T07:05:30.422Z,18.60
2018-06-15T07:06:04.650Z,23.03
2018-06-15T07:06:38.264Z,19.23
2018-06-15T07:07:12.138Z,23.57
2018-06-15T07:07:46.026Z,15.10
2018-06-15T07:08:19.674Z,20.17
2018-06-15T07:08:53.501Z,20.43
2018-06-15T07:09:27.426Z,19.90
2018-06-15T07:10:01.600Z,18.73
2018-06-15T07:10:35.222Z,16.97
2018-06-15T07:11:09.010Z,19.33
2018-06-15T07:11:42.901Z,20.70
2018-06-15T07:12:16.992Z,18.07
2018-06-15T07:12:51.226Z,21.57
2018-06-15T07:13:25.162Z,17.30
2018-06-15T07:13:59.074Z,22.00
2018-06-15T07:14:32.946Z,19.37
2018-06-15T07:15:06.809Z,18.63
2018-06-15T07:15:40.668Z,17.30
2018-06-15T07:16:14.648Z,18.00
2018-06-15T07:16:48.502Z,15.90
2018-06-15T07:17:22.505Z,17.30
2018-06-15T07:17:56.392Z,16.03
2018-06-15T07:18:30.300Z,14.90
2018-06-15T07:19:04.284Z,17.83
2018-06-15T07:19:38.498Z,16.57
2018-06-15T07:20:12.425Z,17.50
2018-06-15T07:20:46.140Z,15.37
2018-06-15T07:21:19.909Z,20.87
2018-06-15T07:21:53.825Z,13.63
2018-06-15T07:22:27.680Z,24.00